sensor_id;sensor_type;location;lat;lon;timestamp;pressure;altitude;pressure_sealevel;temperature
62930;BMP280;49036;42.782;23.108;2023-04-23T00:02:15;-14135.19;;;2.89
62930;BMP280;49036;42.782;23.108;2023-04-23T00:04:48;-14127.75;;;2.68
62930;BMP280;49036;42.782;23.108;2023-04-23T00:07:14;-14127.41;;;2.67
62930;BMP280;49036;42.782;23.108;2023-04-23T00:09:42;-14128.97;;;2.71
62930;BMP280;49036;42.782;23.108;2023-04-23T00:12:08;-14130.19;;;2.75
62930;BMP280;49036;42.782;23.108;2023-04-23T00:14:34;-14137.25;;;2.96
62930;BMP280;49036;42.782;23.108;2023-04-23T00:16:59;-14138.81;;;3.00
62930;BMP280;49036;42.782;23.108;2023-04-23T00:19:25;-14143.81;;;3.15
62930;BMP280;49036;42.782;23.108;2023-04-23T00:21:51;-14145.53;;;3.20
62930;BMP280;49036;42.782;23.108;2023-04-23T00:24:16;-14142.78;;;3.12
62930;BMP280;49036;42.782;23.108;2023-04-23T00:26:42;-14142.59;;;3.11
62930;BMP280;49036;42.782;23.108;2023-04-23T00:29:07;-14137.94;;;2.98
62930;BMP280;49036;42.782;23.108;2023-04-23T00:31:33;-14129.31;;;2.72
62930;BMP280;49036;42.782;23.108;2023-04-23T00:33:59;-14117.22;;;2.37
62930;BMP280;49036;42.782;23.108;2023-04-23T00:36:24;-14117.91;;;2.39
62930;BMP280;49036;42.782;23.108;2023-04-23T00:38:50;-14119.66;;;2.44
62930;BMP280;49036;42.782;23.108;2023-04-23T00:41:16;-14115.50;;;2.31
62930;BMP280;49036;42.782;23.108;2023-04-23T00:43:42;-14122.56;;;2.52
62930;BMP280;49036;42.782;23.108;2023-04-23T00:46:08;-14121.38;;;2.49
62930;BMP280;49036;42.782;23.108;2023-04-23T00:48:35;-14121.22;;;2.48
62930;BMP280;49036;42.782;23.108;2023-04-23T00:51:04;-14125.53;;;2.61
62930;BMP280;49036;42.782;23.108;2023-04-23T00:53:31;-14129.50;;;2.73
62930;BMP280;49036;42.782;23.108;2023-04-23T00:55:57;-14128.63;;;2.70
62930;BMP280;49036;42.782;23.108;2023-04-23T00:58:23;-14128.81;;;2.71
62930;BMP280;49036;42.782;23.108;2023-04-23T01:00:49;-14133.47;;;2.84
62930;BMP280;49036;42.782;23.108;2023-04-23T01:03:16;-14138.97;;;3.01
62930;BMP280;49036;42.782;23.108;2023-04-23T01:05:43;-14140.00;;;3.04
62930;BMP280;49036;42.782;23.108;2023-04-23T01:08:14;-14139.16;;;3.01
62930;BMP280;49036;42.782;23.108;2023-04-23T01:10:41;-14132.06;;;2.80
62930;BMP280;49036;42.782;23.108;2023-04-23T01:13:08;-14126.03;;;2.63
62930;BMP280;49036;42.782;23.108;2023-04-23T01:15:33;-14119.66;;;2.44
62930;BMP280;49036;42.782;23.108;2023-04-23T01:17:59;-14114.47;;;2.28
62930;BMP280;49036;42.782;23.108;2023-04-23T01:20:25;-14107.75;;;2.09
62930;BMP280;49036;42.782;23.108;2023-04-23T01:22:50;-14107.22;;;2.07
62930;BMP280;49036;42.782;23.108;2023-04-23T01:25:16;-14116.19;;;2.33
62930;BMP280;49036;42.782;23.108;2023-04-23T01:27:42;-14125.16;;;2.60
62930;BMP280;49036;42.782;23.108;2023-04-23T01:30:08;-14127.59;;;2.67
62930;BMP280;49036;42.782;23.108;2023-04-23T01:32:34;-14131.72;;;2.79
62930;BMP280;49036;42.782;23.108;2023-04-23T01:35:00;-14130.69;;;2.76
62930;BMP280;49036;42.782;23.108;2023-04-23T01:37:26;-14131.91;;;2.80
62930;BMP280;49036;42.782;23.108;2023-04-23T01:39:53;-14134.31;;;2.87
62930;BMP280;49036;42.782;23.108;2023-04-23T01:42:18;-14134.31;;;2.87
62930;BMP280;49036;42.782;23.108;2023-04-23T01:44:44;-14134.16;;;2.86
62930;BMP280;49036;42.782;23.108;2023-04-23T01:47:10;-14133.81;;;2.85
62930;BMP280;49036;42.782;23.108;2023-04-23T01:49:35;-14131.38;;;2.78
62930;BMP280;49036;42.782;23.108;2023-04-23T01:52:01;-14129.84;;;2.74
62930;BMP280;49036;42.782;23.108;2023-04-23T01:54:27;-14129.50;;;2.73
62930;BMP280;49036;42.782;23.108;2023-04-23T01:56:52;-14129.84;;;2.74
62930;BMP280;49036;42.782;23.108;2023-04-23T01:59:20;-14132.94;;;2.83
62930;BMP280;49036;42.782;23.108;2023-04-23T02:01:47;-14133.47;;;2.84
62930;BMP280;49036;42.782;23.108;2023-04-23T02:04:14;-14134.31;;;2.87
62930;BMP280;49036;42.782;23.108;2023-04-23T02:06:42;-14139.31;;;3.02
62930;BMP280;49036;42.782;23.108;2023-04-23T02:09:08;-14139.84;;;3.03
62930;BMP280;49036;42.782;23.108;2023-04-23T02:11:34;-14140.88;;;3.06
62930;BMP280;49036;42.782;23.108;2023-04-23T02:14:01;-14138.97;;;3.01
62930;BMP280;49036;42.782;23.108;2023-04-23T02:16:26;-14135.53;;;2.90
62930;BMP280;49036;42.782;23.108;2023-04-23T02:18:53;-14129.31;;;2.72
62930;BMP280;49036;42.782;23.108;2023-04-23T02:21:20;-14122.56;;;2.52
62930;BMP280;49036;42.782;23.108;2023-04-23T02:23:45;-14117.06;;;2.36
62930;BMP280;49036;42.782;23.108;2023-04-23T02:26:11;-14113.78;;;2.26
62930;BMP280;49036;42.782;23.108;2023-04-23T02:28:36;-14111.19;;;2.19
62930;BMP280;49036;42.782;23.108;2023-04-23T02:31:02;-14114.13;;;2.27
62930;BMP280;49036;42.782;23.108;2023-04-23T02:33:27;-14115.00;;;2.30
62930;BMP280;49036;42.782;23.108;2023-04-23T02:35:53;-14117.56;;;2.38
62930;BMP280;49036;42.782;23.108;2023-04-23T02:38:18;-14119.13;;;2.42
62930;BMP280;49036;42.782;23.108;2023-04-23T02:40:44;-14120.69;;;2.47
62930;BMP280;49036;42.782;23.108;2023-04-23T02:43:09;-14121.03;;;2.48
62930;BMP280;49036;42.782;23.108;2023-04-23T02:45:35;-14120.16;;;2.45
62930;BMP280;49036;42.782;23.108;2023-04-23T02:48:00;-14121.88;;;2.50
62930;BMP280;49036;42.782;23.108;2023-04-23T02:50:26;-14125.88;;;2.62
62930;BMP280;49036;42.782;23.108;2023-04-23T02:52:51;-14125.53;;;2.61
62930;BMP280;49036;42.782;23.108;2023-04-23T02:55:17;-14121.38;;;2.49
62930;BMP280;49036;42.782;23.108;2023-04-23T02:57:42;-14117.56;;;2.38
62930;BMP280;49036;42.782;23.108;2023-04-23T03:00:10;-14117.06;;;2.36
62930;BMP280;49036;42.782;23.108;2023-04-23T03:02:37;-14119.13;;;2.42
62930;BMP280;49036;42.782;23.108;2023-04-23T03:05:03;-14120.69;;;2.47
62930;BMP280;49036;42.782;23.108;2023-04-23T03:07:29;-14121.56;;;2.49
62930;BMP280;49036;42.782;23.108;2023-04-23T03:09:55;-14122.56;;;2.52
62930;BMP280;49036;42.782;23.108;2023-04-23T03:12:20;-14123.44;;;2.55
62930;BMP280;49036;42.782;23.108;2023-04-23T03:14:46;-14126.22;;;2.63
62930;BMP280;49036;42.782;23.108;2023-04-23T03:17:11;-14127.41;;;2.67
62930;BMP280;49036;42.782;23.108;2023-04-23T03:19:37;-14129.66;;;2.73
62930;BMP280;49036;42.782;23.108;2023-04-23T03:22:02;-14132.75;;;2.82
62930;BMP280;49036;42.782;23.108;2023-04-23T03:24:31;-14133.63;;;2.85
62930;BMP280;49036;42.782;23.108;2023-04-23T03:26:57;-14132.25;;;2.81
62930;BMP280;49036;42.782;23.108;2023-04-23T03:29:23;-14131.72;;;2.79
62930;BMP280;49036;42.782;23.108;2023-04-23T03:31:48;-14130.69;;;2.76
62930;BMP280;49036;42.782;23.108;2023-04-23T03:34:14;-14131.22;;;2.78
62930;BMP280;49036;42.782;23.108;2023-04-23T03:36:39;-14132.25;;;2.81
62930;BMP280;49036;42.782;23.108;2023-04-23T03:39:05;-14132.94;;;2.83
62930;BMP280;49036;42.782;23.108;2023-04-23T03:41:31;-14132.59;;;2.82
62930;BMP280;49036;42.782;23.108;2023-04-23T03:43:57;-14132.41;;;2.81
62930;BMP280;49036;42.782;23.108;2023-04-23T03:46:22;-14132.25;;;2.81
62930;BMP280;49036;42.782;23.108;2023-04-23T03:48:48;-14131.72;;;2.79
62930;BMP280;49036;42.782;23.108;2023-04-23T03:51:13;-14131.56;;;2.79
62930;BMP280;49036;42.782;23.108;2023-04-23T03:53:39;-14132.06;;;2.80
62930;BMP280;49036;42.782;23.108;2023-04-23T03:56:04;-14133.47;;;2.84
62930;BMP280;49036;42.782;23.108;2023-04-23T03:58:30;-14137.25;;;2.96
62930;BMP280;49036;42.782;23.108;2023-04-23T04:00:56;-14143.47;;;3.14
62930;BMP280;49036;42.782;23.108;2023-04-23T04:03:21;-14151.25;;;3.37
62930;BMP280;49036;42.782;23.108;2023-04-23T04:05:47;-14160.38;;;3.64
62930;BMP280;49036;42.782;23.108;2023-04-23T04:08:12;-14166.59;;;3.82
62930;BMP280;49036;42.782;23.108;2023-04-23T04:10:38;-14175.75;;;4.09
62930;BMP280;49036;42.782;23.108;2023-04-23T04:13:05;-14179.72;;;4.21
62930;BMP280;49036;42.782;23.108;2023-04-23T04:15:30;-14185.59;;;4.38
62930;BMP280;49036;42.782;23.108;2023-04-23T04:17:57;-14193.03;;;4.60
62930;BMP280;49036;42.782;23.108;2023-04-23T04:20:25;-14202.88;;;4.89
62930;BMP280;49036;42.782;23.108;2023-04-23T04:22:53;-14234.13;;;5.81
62930;BMP280;49036;42.782;23.108;2023-04-23T04:25:18;-14246.91;;;6.19
62930;BMP280;49036;42.782;23.108;2023-04-23T04:27:46;-14277.16;;;7.08
62930;BMP280;49036;42.782;23.108;2023-04-23T04:30:12;-14291.50;;;7.50
62930;BMP280;49036;42.782;23.108;2023-04-23T04:32:38;-14307.41;;;7.97
62930;BMP280;49036;42.782;23.108;2023-04-23T04:35:05;-14317.78;;;8.27
62930;BMP280;49036;42.782;23.108;2023-04-23T04:37:33;-14324.19;;;8.46
62930;BMP280;49036;42.782;23.108;2023-04-23T04:39:59;-14333.50;;;8.73
62930;BMP280;49036;42.782;23.108;2023-04-23T04:42:26;-14332.47;;;8.70
62930;BMP280;49036;42.782;23.108;2023-04-23T04:44:51;-14339.22;;;8.90
62930;BMP280;49036;42.782;23.108;2023-04-23T04:47:17;-14357.88;;;9.45
62930;BMP280;49036;42.782;23.108;2023-04-23T04:49:43;-14354.59;;;9.35
62930;BMP280;49036;42.782;23.108;2023-04-23T04:52:09;-14347.84;;;9.15
62930;BMP280;49036;42.782;23.108;2023-04-23T04:54:35;-14345.59;;;9.09
62930;BMP280;49036;42.782;23.108;2023-04-23T04:57:00;-14348.22;;;9.17
62930;BMP280;49036;42.782;23.108;2023-04-23T04:59:26;-14352.88;;;9.30
62930;BMP280;49036;42.782;23.108;2023-04-23T05:01:52;-14358.91;;;9.48
62930;BMP280;49036;42.782;23.108;2023-04-23T05:04:17;-14365.31;;;9.67
62930;BMP280;49036;42.782;23.108;2023-04-23T05:06:43;-14368.63;;;9.76
62930;BMP280;49036;42.782;23.108;2023-04-23T05:09:08;-14364.97;;;9.66
62930;BMP280;49036;42.782;23.108;2023-04-23T05:11:34;-14361.16;;;9.55
62930;BMP280;49036;42.782;23.108;2023-04-23T05:14:00;-14354.59;;;9.35
62930;BMP280;49036;42.782;23.108;2023-04-23T05:16:25;-14343.53;;;9.03
62930;BMP280;49036;42.782;23.108;2023-04-23T05:18:51;-14333.84;;;8.74
62930;BMP280;49036;42.782;23.108;2023-04-23T05:21:16;-14326.59;;;8.53
62930;BMP280;49036;42.782;23.108;2023-04-23T05:23:43;-14320.88;;;8.36
62930;BMP280;49036;42.782;23.108;2023-04-23T05:26:09;-14321.75;;;8.39
62930;BMP280;49036;42.782;23.108;2023-04-23T05:28:35;-14316.91;;;8.25
62930;BMP280;49036;42.782;23.108;2023-04-23T05:31:00;-14312.75;;;8.12
62930;BMP280;49036;42.782;23.108;2023-04-23T05:33:26;-14306.53;;;7.94
62930;BMP280;49036;42.782;23.108;2023-04-23T05:35:52;-14303.44;;;7.85
62930;BMP280;49036;42.782;23.108;2023-04-23T05:38:18;-14300.31;;;7.76
62930;BMP280;49036;42.782;23.108;2023-04-23T05:40:43;-14299.63;;;7.74
62930;BMP280;49036;42.782;23.108;2023-04-23T05:43:08;-14299.44;;;7.73
62930;BMP280;49036;42.782;23.108;2023-04-23T05:45:34;-14306.03;;;7.93
62930;BMP280;49036;42.782;23.108;2023-04-23T05:48:00;-14315.72;;;8.21
62930;BMP280;49036;42.782;23.108;2023-04-23T05:50:26;-14334.88;;;8.77
62930;BMP280;49036;42.782;23.108;2023-04-23T05:52:52;-14340.09;;;8.93
62930;BMP280;49036;42.782;23.108;2023-04-23T05:55:18;-14338.19;;;8.87
62930;BMP280;49036;42.782;23.108;2023-04-23T05:57:45;-14334.03;;;8.75
62930;BMP280;49036;42.782;23.108;2023-04-23T06:00:11;-14347.34;;;9.14
62930;BMP280;49036;42.782;23.108;2023-04-23T06:02:37;-14358.56;;;9.47
62930;BMP280;49036;42.782;23.108;2023-04-23T06:05:04;-14365.84;;;9.68
62930;BMP280;49036;42.782;23.108;2023-04-23T06:07:30;-14374.66;;;9.94
62930;BMP280;49036;42.782;23.108;2023-04-23T06:09:56;-14375.53;;;9.97
62930;BMP280;49036;42.782;23.108;2023-04-23T06:12:21;-14379.84;;;10.10
62930;BMP280;49036;42.782;23.108;2023-04-23T06:14:47;-14385.72;;;10.27
62930;BMP280;49036;42.782;23.108;2023-04-23T06:17:12;-14394.03;;;10.51
62930;BMP280;49036;42.782;23.108;2023-04-23T06:19:38;-14400.44;;;10.70
62930;BMP280;49036;42.782;23.108;2023-04-23T06:22:03;-14400.25;;;10.69
62930;BMP280;49036;42.782;23.108;2023-04-23T06:24:30;-14404.94;;;10.83
62930;BMP280;49036;42.782;23.108;2023-04-23T06:26:55;-14411.84;;;11.03
62930;BMP280;49036;42.782;23.108;2023-04-23T06:29:22;-14414.44;;;11.11
62930;BMP280;49036;42.782;23.108;2023-04-23T06:31:47;-14420.16;;;11.28
62930;BMP280;49036;42.782;23.108;2023-04-23T06:34:12;-14424.66;;;11.41
62930;BMP280;49036;42.782;23.108;2023-04-23T06:36:38;-14425.50;;;11.44
62930;BMP280;49036;42.782;23.108;2023-04-23T06:39:03;-14427.41;;;11.49
62930;BMP280;49036;42.782;23.108;2023-04-23T06:41:29;-14427.25;;;11.49
62930;BMP280;49036;42.782;23.108;2023-04-23T06:43:54;-14425.00;;;11.42
62930;BMP280;49036;42.782;23.108;2023-04-23T06:46:20;-14428.28;;;11.52
62930;BMP280;49036;42.782;23.108;2023-04-23T06:48:45;-14426.72;;;11.47
62930;BMP280;49036;42.782;23.108;2023-04-23T06:51:11;-14428.97;;;11.54
62930;BMP280;49036;42.782;23.108;2023-04-23T06:53:37;-14437.28;;;11.78
62930;BMP280;49036;42.782;23.108;2023-04-23T06:56:02;-14436.75;;;11.77
62930;BMP280;49036;42.782;23.108;2023-04-23T06:58:27;-14439.00;;;11.83
62930;BMP280;49036;42.782;23.108;2023-04-23T07:01:00;-14442.81;;;11.94
62930;BMP280;49036;42.782;23.108;2023-04-23T07:03:29;-14445.06;;;12.01
62930;BMP280;49036;42.782;23.108;2023-04-23T07:05:55;-14448.00;;;12.10
62930;BMP280;49036;42.782;23.108;2023-04-23T07:08:21;-14443.34;;;11.96
62930;BMP280;49036;42.782;23.108;2023-04-23T07:10:46;-14446.63;;;12.06
62930;BMP280;49036;42.782;23.108;2023-04-23T07:13:12;-14448.19;;;12.10
62930;BMP280;49036;42.782;23.108;2023-04-23T07:15:37;-14447.13;;;12.07
62930;BMP280;49036;42.782;23.108;2023-04-23T07:18:04;-14448.53;;;12.11
62930;BMP280;49036;42.782;23.108;2023-04-23T07:20:31;-14458.38;;;12.40
62930;BMP280;49036;42.782;23.108;2023-04-23T07:22:57;-14464.78;;;12.59
62930;BMP280;49036;42.782;23.108;2023-04-23T07:25:23;-14472.56;;;12.82
62930;BMP280;49036;42.782;23.108;2023-04-23T07:27:49;-14478.97;;;13.01
62930;BMP280;49036;42.782;23.108;2023-04-23T07:30:15;-14484.19;;;13.16
62930;BMP280;49036;42.782;23.108;2023-04-23T07:32:41;-14489.38;;;13.31
62930;BMP280;49036;42.782;23.108;2023-04-23T07:35:07;-14496.97;;;13.53
62930;BMP280;49036;42.782;23.108;2023-04-23T07:37:35;-14503.56;;;13.73
62930;BMP280;49036;42.782;23.108;2023-04-23T07:40:00;-14498.72;;;13.58
62930;BMP280;49036;42.782;23.108;2023-04-23T07:42:26;-14495.59;;;13.49
62930;BMP280;49036;42.782;23.108;2023-04-23T07:44:52;-14496.97;;;13.53
62930;BMP280;49036;42.782;23.108;2023-04-23T07:47:18;-14491.59;;;13.38
62930;BMP280;49036;42.782;23.108;2023-04-23T07:49:44;-14492.47;;;13.40
62930;BMP280;49036;42.782;23.108;2023-04-23T07:52:09;-14491.78;;;13.38
62930;BMP280;49036;42.782;23.108;2023-04-23T07:54:35;-14491.78;;;13.38
62930;BMP280;49036;42.782;23.108;2023-04-23T07:57:00;-14498.00;;;13.56
62930;BMP280;49036;42.782;23.108;2023-04-23T07:59:27;-14499.75;;;13.61
62930;BMP280;49036;42.782;23.108;2023-04-23T08:01:53;-14498.38;;;13.57
62930;BMP280;49036;42.782;23.108;2023-04-23T08:04:19;-14509.78;;;13.91
62930;BMP280;49036;42.782;23.108;2023-04-23T08:06:45;-14509.97;;;13.91
62930;BMP280;49036;42.782;23.108;2023-04-23T08:09:10;-14514.63;;;14.05
62930;BMP280;49036;42.782;23.108;2023-04-23T08:11:36;-14519.66;;;14.20
62930;BMP280;49036;42.782;23.108;2023-04-23T08:14:01;-14526.94;;;14.41
62930;BMP280;49036;42.782;23.108;2023-04-23T08:16:27;-14529.69;;;14.49
62930;BMP280;49036;42.782;23.108;2023-04-23T08:18:53;-14530.22;;;14.51
62930;BMP280;49036;42.782;23.108;2023-04-23T08:33:12;-14562.06;;;15.44
62930;BMP280;49036;42.782;23.108;2023-04-23T08:35:38;-14572.63;;;15.75
62930;BMP280;49036;42.782;23.108;2023-04-23T08:38:04;-14579.22;;;15.94
62930;BMP280;49036;42.782;23.108;2023-04-23T08:40:30;-14582.31;;;16.04
62930;BMP280;49036;42.782;23.108;2023-04-23T08:43:07;-14586.47;;;16.16
62930;BMP280;49036;42.782;23.108;2023-04-23T08:45:35;-14570.91;;;15.70
62930;BMP280;49036;42.782;23.108;2023-04-23T08:48:06;-14587.88;;;16.20
62930;BMP280;49036;42.782;23.108;2023-04-23T08:50:33;-14591.50;;;16.30
62930;BMP280;49036;42.782;23.108;2023-04-23T08:53:02;-14593.22;;;16.36
62930;BMP280;49036;42.782;23.108;2023-04-23T08:58:50;-14605.00;;;16.70
62930;BMP280;49036;42.782;23.108;2023-04-23T09:01:16;-14610.72;;;16.87
62930;BMP280;49036;42.782;23.108;2023-04-23T09:03:42;-14623.53;;;17.24
62930;BMP280;49036;42.782;23.108;2023-04-23T09:06:08;-14639.31;;;17.70
62930;BMP280;49036;42.782;23.108;2023-04-23T09:08:34;-14641.19;;;17.76
62930;BMP280;49036;42.782;23.108;2023-04-23T09:11:00;-14627.00;;;17.34
62930;BMP280;49036;42.782;23.108;2023-04-23T09:13:28;-14638.25;;;17.67
62930;BMP280;49036;42.782;23.108;2023-04-23T09:15:54;-14641.03;;;17.76
62930;BMP280;49036;42.782;23.108;2023-04-23T09:18:19;-14650.72;;;18.04
62930;BMP280;49036;42.782;23.108;2023-04-23T09:20:45;-14648.81;;;17.98
62930;BMP280;49036;42.782;23.108;2023-04-23T09:23:13;-14659.56;;;18.30
62930;BMP280;49036;42.782;23.108;2023-04-23T09:25:39;-14627.16;;;17.35
62930;BMP280;49036;42.782;23.108;2023-04-23T09:28:06;-14645.72;;;17.89
62930;BMP280;49036;42.782;23.108;2023-04-23T09:30:47;-14667.19;;;18.52
62930;BMP280;49036;42.782;23.108;2023-04-23T09:33:15;-14665.28;;;18.47
62930;BMP280;49036;42.782;23.108;2023-04-23T09:35:41;-14669.59;;;18.59
62930;BMP280;49036;42.782;23.108;2023-04-23T09:38:07;-14690.41;;;19.20
62930;BMP280;49036;42.782;23.108;2023-04-23T09:40:35;-14699.06;;;19.45
62930;BMP280;49036;42.782;23.108;2023-04-23T09:43:03;-14697.66;;;19.41
62930;BMP280;49036;42.782;23.108;2023-04-23T09:45:29;-14711.34;;;19.81
62930;BMP280;49036;42.782;23.108;2023-04-23T09:47:56;-14728.00;;;20.30
62930;BMP280;49036;42.782;23.108;2023-04-23T09:54:40;-14742.19;;;20.72
62930;BMP280;49036;42.782;23.108;2023-04-23T09:57:06;-14734.41;;;20.49
62930;BMP280;49036;42.782;23.108;2023-04-23T09:59:33;-14731.09;;;20.39
62930;BMP280;49036;42.782;23.108;2023-04-23T10:05:22;-14729.88;;;20.36
62930;BMP280;49036;42.782;23.108;2023-04-23T10:07:47;-14710.13;;;19.78
62930;BMP280;49036;42.782;23.108;2023-04-23T10:10:14;-14734.75;;;20.50
62930;BMP280;49036;42.782;23.108;2023-04-23T10:12:44;-14743.06;;;20.74
62930;BMP280;49036;42.782;23.108;2023-04-23T10:15:11;-14742.72;;;20.73
62930;BMP280;49036;42.782;23.108;2023-04-23T10:17:38;-14756.75;;;21.14
62930;BMP280;49036;42.782;23.108;2023-04-23T10:20:05;-14747.56;;;20.87
62930;BMP280;49036;42.782;23.108;2023-04-23T10:22:33;-14773.91;;;21.64
62930;BMP280;49036;42.782;23.108;2023-04-23T10:25:00;-14783.25;;;21.92
62930;BMP280;49036;42.782;23.108;2023-04-23T10:27:30;-14794.50;;;22.25
62930;BMP280;49036;42.782;23.108;2023-04-23T10:29:59;-14808.38;;;22.65
62930;BMP280;49036;42.782;23.108;2023-04-23T10:32:26;-14807.50;;;22.63
62930;BMP280;49036;42.782;23.108;2023-04-23T10:34:52;-14788.47;;;22.07
62930;BMP280;49036;42.782;23.108;2023-04-23T10:37:18;-14803.38;;;22.51
62930;BMP280;49036;42.782;23.108;2023-04-23T10:40:09;-14819.47;;;22.98
62930;BMP280;49036;42.782;23.108;2023-04-23T10:42:41;-14820.00;;;22.99
62930;BMP280;49036;42.782;23.108;2023-04-23T10:45:15;-14857.44;;;24.09
62930;BMP280;49036;42.782;23.108;2023-04-23T10:47:42;-14839.06;;;23.55
62930;BMP280;49036;42.782;23.108;2023-04-23T10:52:44;-14873.19;;;24.55
62930;BMP280;49036;42.782;23.108;2023-04-23T10:58:47;-14909.59;;;25.61
62930;BMP280;49036;42.782;23.108;2023-04-23T11:01:13;-14889.84;;;25.03
62930;BMP280;49036;42.782;23.108;2023-04-23T11:03:39;-14898.50;;;25.29
62930;BMP280;49036;42.782;23.108;2023-04-23T11:06:06;-14919.13;;;25.89
62930;BMP280;49036;42.782;23.108;2023-04-23T11:08:36;-14952.59;;;26.87
62930;BMP280;49036;42.782;23.108;2023-04-23T11:11:07;-14983.09;;;27.76
62930;BMP280;49036;42.782;23.108;2023-04-23T11:13:33;-15001.81;;;28.30
62930;BMP280;49036;42.782;23.108;2023-04-23T11:21:59;-14954.13;;;26.91
62930;BMP280;49036;42.782;23.108;2023-04-23T11:24:32;-15002.34;;;28.32
62930;BMP280;49036;42.782;23.108;2023-04-23T11:27:04;-15037.00;;;29.33
62930;BMP280;49036;42.782;23.108;2023-04-23T11:29:30;-15044.97;;;29.56
62930;BMP280;49036;42.782;23.108;2023-04-23T11:31:55;-15037.00;;;29.33
62930;BMP280;49036;42.782;23.108;2023-04-23T11:34:21;-15068.91;;;30.26
62930;BMP280;49036;42.782;23.108;2023-04-23T11:36:50;-15061.78;;;30.05
62930;BMP280;49036;42.782;23.108;2023-04-23T11:39:15;-15038.91;;;29.39
62930;BMP280;49036;42.782;23.108;2023-04-23T11:41:43;-15061.09;;;30.03
62930;BMP280;49036;42.782;23.108;2023-04-23T11:44:11;-15105.81;;;31.34
62930;BMP280;49036;42.782;23.108;2023-04-23T11:46:37;-15124.53;;;31.88
62930;BMP280;49036;42.782;23.108;2023-04-23T11:49:02;-15126.44;;;31.94
62930;BMP280;49036;42.782;23.108;2023-04-23T11:51:28;-15110.84;;;31.48
62930;BMP280;49036;42.782;23.108;2023-04-23T11:53:54;-15031.97;;;29.18
62930;BMP280;49036;42.782;23.108;2023-04-23T11:59:47;-14936.28;;;26.39
62930;BMP280;49036;42.782;23.108;2023-04-23T12:08:53;-14802.16;;;22.47
62930;BMP280;49036;42.782;23.108;2023-04-23T12:11:22;-14731.09;;;20.39
62930;BMP280;49036;42.782;23.108;2023-04-23T12:13:48;-14759.34;;;21.22
62930;BMP280;49036;42.782;23.108;2023-04-23T12:16:13;-14758.31;;;21.19
62930;BMP280;49036;42.782;23.108;2023-04-23T12:19:13;-14745.47;;;20.81
62930;BMP280;49036;42.782;23.108;2023-04-23T12:22:03;-14753.09;;;21.04
62930;BMP280;49036;42.782;23.108;2023-04-23T12:24:48;-14756.22;;;21.13
62930;BMP280;49036;42.782;23.108;2023-04-23T12:28:53;-14725.72;;;20.23
62930;BMP280;49036;42.782;23.108;2023-04-23T12:31:24;-14714.28;;;19.90
62930;BMP280;49036;42.782;23.108;2023-04-23T12:33:57;-14724.00;;;20.18
62930;BMP280;49036;42.782;23.108;2023-04-23T12:36:27;-14733.72;;;20.47
62930;BMP280;49036;42.782;23.108;2023-04-23T12:38:54;-14729.56;;;20.35
62930;BMP280;49036;42.782;23.108;2023-04-23T12:41:19;-14689.53;;;19.18
62930;BMP280;49036;42.782;23.108;2023-04-23T12:43:45;-14685.03;;;19.04
62930;BMP280;49036;42.782;23.108;2023-04-23T12:46:13;-14697.84;;;19.42
62930;BMP280;49036;42.782;23.108;2023-04-23T12:48:38;-14703.56;;;19.59
62930;BMP280;49036;42.782;23.108;2023-04-23T12:51:04;-14688.16;;;19.13
62930;BMP280;49036;42.782;23.108;2023-04-23T12:53:31;-14690.91;;;19.22
62930;BMP280;49036;42.782;23.108;2023-04-23T12:55:56;-14689.19;;;19.17
62930;BMP280;49036;42.782;23.108;2023-04-23T12:58:22;-14686.41;;;19.08
62930;BMP280;49036;42.782;23.108;2023-04-23T13:00:47;-14680.00;;;18.90
62930;BMP280;49036;42.782;23.108;2023-04-23T13:03:13;-14664.06;;;18.43
62930;BMP280;49036;42.782;23.108;2023-04-23T13:05:40;-14673.94;;;18.72
62930;BMP280;49036;42.782;23.108;2023-04-23T13:08:06;-14681.91;;;18.95
62930;BMP280;49036;42.782;23.108;2023-04-23T13:10:31;-14681.72;;;18.95
62930;BMP280;49036;42.782;23.108;2023-04-23T13:12:57;-14730.25;;;20.37
62930;BMP280;49036;42.782;23.108;2023-04-23T13:15:22;-14791.06;;;22.15
62930;BMP280;49036;42.782;23.108;2023-04-23T13:17:48;-14795.56;;;22.28
62930;BMP280;49036;42.782;23.108;2023-04-23T13:20:13;-14898.31;;;25.28
62930;BMP280;49036;42.782;23.108;2023-04-23T13:22:39;-15024.00;;;28.95
62930;BMP280;49036;42.782;23.108;2023-04-23T13:25:04;-15109.13;;;31.43
62930;BMP280;49036;42.782;23.108;2023-04-23T13:27:30;93763.00;;;32.90
62930;BMP280;49036;42.782;23.108;2023-04-23T13:29:56;93748.63;;;33.41
62930;BMP280;49036;42.782;23.108;2023-04-23T13:32:22;93740.03;;;34.55
62930;BMP280;49036;42.782;23.108;2023-04-23T13:34:52;93752.19;;;34.78
62930;BMP280;49036;42.782;23.108;2023-04-23T13:37:18;93755.75;;;34.37
62930;BMP280;49036;42.782;23.108;2023-04-23T13:39:43;93749.91;;;32.39
62930;BMP280;49036;42.782;23.108;2023-04-23T13:42:08;-15044.09;;;29.54
62930;BMP280;49036;42.782;23.108;2023-04-23T13:44:34;-15046.34;;;29.60
62930;BMP280;49036;42.782;23.108;2023-04-23T13:46:59;-15091.78;;;30.93
62930;BMP280;49036;42.782;23.108;2023-04-23T13:51:10;-14993.66;;;28.07
62930;BMP280;49036;42.782;23.108;2023-04-23T13:53:35;-14919.47;;;25.90
62930;BMP280;49036;42.782;23.108;2023-04-23T13:56:01;-14854.13;;;23.99
62930;BMP280;49036;42.782;23.108;2023-04-23T13:58:26;-14821.22;;;23.03
62930;BMP280;49036;42.782;23.108;2023-04-23T14:00:52;-14791.22;;;22.15
62930;BMP280;49036;42.782;23.108;2023-04-23T14:03:17;-14746.88;;;20.85
62930;BMP280;49036;42.782;23.108;2023-04-23T14:05:44;-14741.16;;;20.69
62930;BMP280;49036;42.782;23.108;2023-04-23T14:08:10;-14735.25;;;20.51
62930;BMP280;49036;42.782;23.108;2023-04-23T14:10:37;-14725.91;;;20.24
62930;BMP280;49036;42.782;23.108;2023-04-23T14:13:03;-14720.38;;;20.08
62930;BMP280;49036;42.782;23.108;2023-04-23T14:15:29;-14715.00;;;19.92
62930;BMP280;49036;42.782;23.108;2023-04-23T14:17:54;-14787.41;;;22.04
62930;BMP280;49036;42.782;23.108;2023-04-23T14:21:30;-14913.41;;;25.72
62930;BMP280;49036;42.782;23.108;2023-04-23T14:24:01;-15001.13;;;28.28
62930;BMP280;49036;42.782;23.108;2023-04-23T14:27:49;-15029.91;;;29.12
62930;BMP280;49036;42.782;23.108;2023-04-23T14:30:18;-14953.09;;;26.88
62930;BMP280;49036;42.782;23.108;2023-04-23T14:32:44;-14895.22;;;25.19
62930;BMP280;49036;42.782;23.108;2023-04-23T14:35:14;-14843.56;;;23.68
62930;BMP280;49036;42.782;23.108;2023-04-23T14:37:40;-14805.78;;;22.58